Bountiful, Colorado
Current Conditions -  °F | °C
As of 12:52 AM on Thursday 29 Jan 2015 (Local Time) from KALS Reporting Station
Clear Clear  
Wind Chill: 23°   Ceiling: Unl
Heat Index: 23°   Visibility: 10mi
Dew Point: 17°   Wind: 3mph
Humidity: 78%   Direction: 250°WSW
Pressure: 30.31"   Gusts: NA
Location:  37.3121°N, 106.036°W
Report Text: KALS 290752Z AUTO 25003KT 10SM CLR M05/M08 A3031 RMK AO2 SLP259 T10501083
Loading
Personal Weather Stations






























Interactive Weather Map New forecast layout! Learn more

10-Day Weather Forecast

Advertisements
Track Severe Weather on mobile